SEQMSECU

Guest
Details From SEQM - Quito - Mariscal Sucre Intl
To SECU - MARISCAL LAMAR
Flight Number -
Tags generated
Created
Modified
Stats Distance 171 nm / 316 km
Max Altitude 20,900 ft / 6,370 m
Waypoints 3
Social Downloads 11
Likes 0
Share VATSIM

Download

Looking for another format? Having issues loading an existing format? Contact us
Advertisement - Login to hide

Notes

Basic altitude profile: - Ascent Rate: 2500ft/min - Ascent Speed: 250kts - Cruise Altitude: 35000ft - Cruise Speed: 420kts - Descent Rate: 1500ft/min - Descent Speed: 250kts Options: - Use NATs: yes - Use PACOTS: yes - Use low airways: yes - Use high airways: yes

Route

SEQM PUCRA SECU

ID Type Via Altitude Latitude Longitude Leg Dist Tot Dist Heading (true) Name
O SEQM APT - 0 ft / 0 m -0.12409˚ -78.35438˚ - 0 nm - Quito - Mariscal Sucre Intl
PUCRA FIX - 20,900 ft / 6,370 m -1.28500˚ -78.69056˚ 72 nm 72 nm 196° / 196° -
O SECU APT - 0 ft / 0 m -2.88947˚ -78.98440˚ 97 nm 170 nm 190° / 190° MARISCAL LAMAR

Altitude Profile

Advertisement - Login to hide

Weather


0- 5 10 15 20 25 30 35+ Temperature / ° C

Clouds and Precipitation
Forecast for 2017-12-16 18:00 UTC. Updated 2 hours ago

Ground ~20,000 ft ~40,000 ft Winds

SEQM

Details ICAO SEQM
Name Quito - Mariscal Sucre Intl
Region Equador
Timezone America/Guayaquil (UTC-5.0)
Stats Elevation 7,841 ft / 2,390 m (AMSL)
Location -0.124089° -78.354381°
Runways 1
Magnetic Variation 3.595° W

METAR

SEQM 161900Z 35015KT 9999 FEW040 24/08 Q1020 NOSIG RMK A3013

Decode

TAF

Not found

Departure Runways

ID Width Length Bearing (true) Bearing (mag) Surface Threshold Offset Overrun Length
18 171 ft / 52 m 13,524 ft / 4,122 m 177.61° 181.21° Asphalt 0 ft / 0 m 177 ft / 54 m
36 171 ft / 52 m 13,524 ft / 4,122 m 357.61° 1.21° Asphalt 0 ft / 0 m 184 ft / 56 m

SECU

Details ICAO SECU (CUE)
Name MARISCAL LAMAR
Region Equador
Timezone America/Guayaquil (UTC-5.0)
Stats Elevation 8,306 ft / 2,532 m (AMSL)
Location -2.889468° -78.984398°
Runways 1
Magnetic Variation 2.618° W

METAR

SECU 161900Z 06010KT 9999 BKN040 26/09 Q1022

Decode

TAF

Not found

Destination Runways

ID Width Length Bearing (true) Bearing (mag) Surface Threshold Offset Overrun Length
05 118 ft / 36 m 6,240 ft / 1,902 m 51.98° 54.60° Asphalt 0 ft / 0 m 141 ft / 43 m
23 118 ft / 36 m 6,240 ft / 1,902 m 231.97° 234.59° Asphalt 0 ft / 0 m 0 ft / 0 m

Approach Navaids

Runway Type Ident Frequency Range Bearing (true) Bearing (mag) Slope Elevation
23 Localiser ILC 110.90 MHz 18 nm / 33 km 232.25° 234.87° - 8,284 ft / 2,525 m (AMSL)
23 Glidescope ILC 110.90 MHz 10 nm / 19 km 231.97° 234.59° 3.20° 8,284 ft / 2,525 m (AMSL)
23 DME ILC 110.90 MHz 18 nm / 33 km - - - 8,306 ft / 2,532 m (AMSL)

Popular Alternatives